createdAt,value
2023-04-08T00:00:32.441Z,0.30
2023-04-08T00:02:59.774Z,0.40
2023-04-08T00:05:26.832Z,0.30
2023-04-08T00:07:53.680Z,0.30
2023-04-08T00:10:20.989Z,0.30
2023-04-08T00:12:48.786Z,0.30
2023-04-08T00:15:15.703Z,0.30
2023-04-08T00:17:42.661Z,0.40
2023-04-08T00:20:10.018Z,0.50
2023-04-08T00:22:36.911Z,0.50
2023-04-08T00:25:06.780Z,0.40
2023-04-08T00:27:34.060Z,0.40
2023-04-08T00:30:01.929Z,0.50
2023-04-08T00:32:29.500Z,0.40
2023-04-08T00:34:56.657Z,0.40
2023-04-08T00:37:25.053Z,0.40
2023-04-08T00:39:54.368Z,0.50
2023-04-08T00:42:22.277Z,0.40
2023-04-08T00:44:49.334Z,0.40
2023-04-08T00:47:16.723Z,0.30
2023-04-08T00:49:44.186Z,0.30
2023-04-08T00:52:11.175Z,0.30
2023-04-08T00:54:38.670Z,0.30
2023-04-08T00:57:06.703Z,0.20
2023-04-08T00:59:36.077Z,0.20
2023-04-08T01:02:15.121Z,0.20
2023-04-08T01:05:00.366Z,0.10
2023-04-08T01:07:44.870Z,0.10
2023-04-08T01:10:26.080Z,0.00
2023-04-08T01:12:58.520Z,0.00
2023-04-08T01:15:29.026Z,0.10
2023-04-08T01:17:58.811Z,0.00
2023-04-08T01:20:27.499Z,0.10
2023-04-08T01:23:13.518Z,0.10
2023-04-08T01:25:45.482Z,0.00
2023-04-08T01:28:16.528Z,0.00
2023-04-08T01:30:45.108Z,-0.10
2023-04-08T01:33:15.026Z,-0.10
2023-04-08T01:35:42.357Z,-0.20
2023-04-08T01:38:14.074Z,-0.20
2023-04-08T01:40:42.280Z,-0.20
2023-04-08T01:43:11.431Z,-0.10
2023-04-08T01:45:39.157Z,-0.10
2023-04-08T01:48:07.146Z,-0.10
2023-04-08T01:50:34.802Z,-0.10
2023-04-08T01:53:04.763Z,-0.20
2023-04-08T01:55:33.746Z,-0.10
2023-04-08T01:58:01.374Z,-0.10
2023-04-08T02:00:31.015Z,-0.20
2023-04-08T02:02:59.683Z,-0.10
2023-04-08T02:05:26.763Z,-0.10
2023-04-08T02:07:53.608Z,-0.20
2023-04-08T02:10:21.305Z,-0.10
2023-04-08T02:12:49.513Z,-0.10
2023-04-08T02:15:17.234Z,-0.20
2023-04-08T02:17:56.329Z,-0.20
2023-04-08T02:20:32.813Z,-0.20
2023-04-08T02:23:09.410Z,-0.20
2023-04-08T02:25:40.029Z,-0.20
2023-04-08T02:28:11.294Z,-0.20
2023-04-08T02:30:48.146Z,-0.20
2023-04-08T02:33:17.955Z,-0.20
2023-04-08T02:35:45.973Z,-0.20
2023-04-08T02:38:12.864Z,-0.30
2023-04-08T02:40:39.730Z,-0.30
2023-04-08T02:43:07.284Z,-0.30
2023-04-08T02:45:43.878Z,-0.40
2023-04-08T02:48:11.096Z,-0.40
2023-04-08T02:50:38.337Z,-0.50
2023-04-08T02:53:05.496Z,-0.50
2023-04-08T02:55:33.774Z,-0.50
2023-04-08T02:58:00.926Z,-0.50
2023-04-08T03:00:27.848Z,-0.50
2023-04-08T03:02:55.472Z,-0.50
2023-04-08T03:05:22.446Z,-0.60
2023-04-08T03:07:49.280Z,-0.60
2023-04-08T03:10:16.166Z,-0.60
2023-04-08T03:12:43.093Z,-0.60
2023-04-08T03:15:10.652Z,-0.50
2023-04-08T03:17:37.715Z,-0.50
2023-04-08T03:20:05.244Z,-0.50
2023-04-08T03:22:33.040Z,-0.50
2023-04-08T03:25:00.158Z,-0.60
2023-04-08T03:27:27.033Z,-0.60
2023-04-08T03:29:54.017Z,-0.60
2023-04-08T03:32:21.189Z,-0.60
2023-04-08T03:34:51.167Z,-0.60
2023-04-08T03:37:18.824Z,-0.60
2023-04-08T03:39:46.482Z,-0.70
2023-04-08T03:42:13.694Z,-0.70
2023-04-08T03:44:40.644Z,-0.70
2023-04-08T03:47:07.519Z,-0.80
2023-04-08T03:49:34.293Z,-0.90
2023-04-08T03:52:01.109Z,-0.90
2023-04-08T03:54:28.092Z,-0.90
2023-04-08T03:56:55.030Z,-0.80
2023-04-08T03:59:21.929Z,-0.80
2023-04-08T04:01:48.974Z,-0.70
2023-04-08T04:04:16.474Z,-0.70
2023-04-08T04:06:43.578Z,-0.70
2023-04-08T04:09:11.228Z,-0.70
2023-04-08T04:11:38.072Z,-0.70
2023-04-08T04:14:04.918Z,-0.70
2023-04-08T04:16:32.950Z,-0.60
2023-04-08T04:19:00.395Z,-0.50
2023-04-08T04:21:27.584Z,-0.50
2023-04-08T04:23:54.529Z,-0.50
2023-04-08T04:26:21.629Z,-0.50
2023-04-08T04:28:49.035Z,-0.50
2023-04-08T04:31:21.971Z,-0.60
2023-04-08T04:33:49.552Z,-0.60
2023-04-08T04:36:16.473Z,-0.60
2023-04-08T04:38:43.684Z,-0.70
2023-04-08T04:41:11.065Z,-0.70
2023-04-08T04:43:38.109Z,-0.70
2023-04-08T04:46:07.242Z,-0.70
2023-04-08T04:48:34.892Z,-0.80
2023-04-08T04:51:05.082Z,-0.80
2023-04-08T04:53:32.026Z,-0.80
2023-04-08T04:56:01.271Z,-0.80
2023-04-08T04:58:28.670Z,-0.90
2023-04-08T05:00:56.115Z,-0.80
2023-04-08T05:03:23.326Z,-0.80
2023-04-08T05:05:54.291Z,-0.80
2023-04-08T05:08:21.909Z,-0.90
2023-04-08T05:10:50.943Z,-0.80
2023-04-08T05:13:18.963Z,-0.90
2023-04-08T05:15:46.306Z,-0.80
2023-04-08T05:18:13.600Z,-0.90
2023-04-08T05:20:40.563Z,-0.80
2023-04-08T05:23:07.868Z,-0.70
2023-04-08T05:25:34.938Z,-0.40
2023-04-08T05:28:01.951Z,-0.10
2023-04-08T05:30:28.974Z,0.10
2023-04-08T05:32:59.387Z,0.30
2023-04-08T05:35:27.503Z,0.50
2023-04-08T05:37:54.418Z,0.60
2023-04-08T05:40:21.294Z,0.80
2023-04-08T05:42:48.127Z,1.00
2023-04-08T05:45:15.205Z,1.00
2023-04-08T05:47:42.129Z,1.10
2023-04-08T05:50:09.480Z,1.20
2023-04-08T05:52:36.434Z,1.30
2023-04-08T05:55:03.777Z,1.30
2023-04-08T05:57:30.709Z,1.40
2023-04-08T05:59:57.507Z,1.50
2023-04-08T06:02:24.537Z,1.60
2023-04-08T06:04:51.654Z,1.70
2023-04-08T06:07:18.776Z,1.80
2023-04-08T06:09:45.722Z,2.00
2023-04-08T06:12:13.049Z,2.00
2023-04-08T06:14:39.910Z,2.10
2023-04-08T06:17:06.807Z,2.20
2023-04-08T06:19:33.613Z,2.40
2023-04-08T06:22:00.574Z,2.50
2023-04-08T06:24:27.835Z,2.70
2023-04-08T06:26:54.987Z,2.80
2023-04-08T06:29:23.058Z,2.90
2023-04-08T06:31:51.332Z,3.00
2023-04-08T06:34:18.274Z,3.10
2023-04-08T06:36:45.167Z,3.10
2023-04-08T06:39:12.103Z,3.20
2023-04-08T06:41:38.927Z,3.20
2023-04-08T06:44:19.735Z,3.20
2023-04-08T06:46:46.830Z,3.30
2023-04-08T06:49:13.660Z,3.30
2023-04-08T06:51:40.519Z,3.50
2023-04-08T06:54:07.573Z,3.70
2023-04-08T06:56:34.552Z,3.80
2023-04-08T06:59:01.497Z,4.10
2023-04-08T07:01:28.417Z,4.40
2023-04-08T07:03:57.685Z,4.50
2023-04-08T07:06:24.754Z,4.40
2023-04-08T07:08:51.778Z,4.40
2023-04-08T07:11:18.890Z,4.30
2023-04-08T07:13:45.769Z,4.20
2023-04-08T07:16:12.662Z,4.10
2023-04-08T07:18:41.681Z,3.90
2023-04-08T07:21:08.546Z,3.60
2023-04-08T07:23:35.424Z,3.50
2023-04-08T07:26:06.258Z,3.50
2023-04-08T07:28:33.277Z,3.50
2023-04-08T07:31:16.038Z,3.50
2023-04-08T07:33:43.702Z,3.60
2023-04-08T07:36:12.150Z,3.80
2023-04-08T07:38:39.453Z,4.00
2023-04-08T07:41:06.354Z,4.10
2023-04-08T07:43:40.072Z,4.20
2023-04-08T07:46:07.579Z,4.20
2023-04-08T07:48:35.311Z,4.30
2023-04-08T07:51:11.321Z,4.40
2023-04-08T07:53:40.381Z,4.60
2023-04-08T07:56:14.670Z,4.50
2023-04-08T07:58:42.426Z,4.50
2023-04-08T08:01:21.920Z,4.60
2023-04-08T08:03:51.466Z,4.60
2023-04-08T08:06:18.935Z,4.60
2023-04-08T08:08:45.968Z,4.60
2023-04-08T08:11:13.258Z,4.60
2023-04-08T08:13:40.356Z,4.80
2023-04-08T08:16:09.391Z,4.90
2023-04-08T08:18:37.024Z,5.00
2023-04-08T08:21:04.138Z,5.00
2023-04-08T08:23:31.485Z,5.00
2023-04-08T08:26:16.813Z,5.20
2023-04-08T08:28:43.742Z,5.40
2023-04-08T08:31:10.701Z,5.60
2023-04-08T08:33:37.527Z,5.80
2023-04-08T08:36:05.991Z,6.00
2023-04-08T08:38:33.413Z,6.00
2023-04-08T08:41:01.839Z,6.20
2023-04-08T08:43:29.854Z,6.40
2023-04-08T08:45:56.694Z,6.50
2023-04-08T08:48:23.789Z,6.50
2023-04-08T08:50:50.902Z,6.50
2023-04-08T08:53:19.684Z,6.40
2023-04-08T08:56:13.738Z,6.50
2023-04-08T08:58:33.515Z,6.50
2023-04-08T09:01:00.445Z,6.60
2023-04-08T09:03:28.846Z,6.60
2023-04-08T09:06:01.731Z,6.60
2023-04-08T09:08:31.510Z,6.60
2023-04-08T09:11:16.469Z,6.60
2023-04-08T09:13:45.340Z,6.80
2023-04-08T09:16:18.289Z,6.90
2023-04-08T09:18:47.503Z,7.00
2023-04-08T09:21:19.167Z,7.20
2023-04-08T09:23:50.949Z,7.30
2023-04-08T09:26:20.285Z,7.30
2023-04-08T09:29:18.251Z,7.50
2023-04-08T09:31:47.296Z,7.70
2023-04-08T09:34:17.116Z,7.90
2023-04-08T09:36:44.713Z,8.00
2023-04-08T09:39:12.109Z,8.10
2023-04-08T09:41:39.679Z,8.20
2023-04-08T09:44:09.676Z,8.30
2023-04-08T09:46:46.048Z,8.40
2023-04-08T09:49:18.468Z,8.40
2023-04-08T09:52:07.449Z,8.50
2023-04-08T09:54:59.156Z,8.70
2023-04-08T09:57:36.661Z,8.90
2023-04-08T10:00:17.740Z,9.00
2023-04-08T10:03:03.335Z,9.30
2023-04-08T10:05:31.281Z,9.50
2023-04-08T10:07:58.435Z,9.70
2023-04-08T10:10:26.751Z,9.80
2023-04-08T10:12:54.161Z,10.00
2023-04-08T10:15:32.453Z,10.20
2023-04-08T10:18:05.800Z,10.30
2023-04-08T10:20:38.699Z,10.50
2023-04-08T10:23:09.564Z,10.60
2023-04-08T10:25:48.025Z,10.80
2023-04-08T10:28:15.507Z,11.00
2023-04-08T10:30:44.193Z,11.30
2023-04-08T10:33:25.529Z,11.50
2023-04-08T10:36:12.260Z,11.70
2023-04-08T10:38:39.869Z,11.90
2023-04-08T10:41:06.710Z,12.00
2023-04-08T10:43:34.957Z,12.20
2023-04-08T10:46:02.508Z,12.10
2023-04-08T10:48:29.655Z,12.10
2023-04-08T10:50:57.174Z,12.10
2023-04-08T10:53:30.999Z,12.20
2023-04-08T10:56:25.507Z,12.30
2023-04-08T10:58:57.579Z,12.30
2023-04-08T11:01:24.711Z,12.40
2023-04-08T11:03:52.205Z,12.50
2023-04-08T11:06:19.782Z,12.50
2023-04-08T11:08:47.326Z,12.50
2023-04-08T11:11:15.477Z,12.50
2023-04-08T11:13:51.994Z,12.60
2023-04-08T11:16:21.637Z,12.60
2023-04-08T11:18:49.621Z,12.70
2023-04-08T11:21:17.417Z,12.80
2023-04-08T11:23:44.739Z,12.80
2023-04-08T11:26:12.100Z,12.90
2023-04-08T11:28:39.168Z,13.00
2023-04-08T11:31:08.889Z,13.20
2023-04-08T11:33:36.447Z,13.20
2023-04-08T11:36:06.296Z,13.10
2023-04-08T11:38:33.202Z,13.00
2023-04-08T11:41:00.620Z,12.70
2023-04-08T11:43:28.856Z,12.60
2023-04-08T11:45:55.746Z,12.40
2023-04-08T11:48:24.206Z,12.30
2023-04-08T11:51:04.065Z,12.10
2023-04-08T11:53:31.012Z,11.90
2023-04-08T11:55:58.070Z,11.90
2023-04-08T11:58:25.009Z,11.90
2023-04-08T12:00:51.847Z,11.80
2023-04-08T12:03:18.980Z,11.80
2023-04-08T12:05:46.569Z,11.60
2023-04-08T12:08:14.645Z,11.70
2023-04-08T12:10:41.755Z,11.90
2023-04-08T12:13:08.667Z,12.10
2023-04-08T12:15:35.546Z,12.00
2023-04-08T12:18:02.510Z,11.80
2023-04-08T12:20:29.402Z,11.80
2023-04-08T12:22:56.291Z,11.90
2023-04-08T12:25:23.391Z,12.10
2023-04-08T12:27:50.332Z,12.30
2023-04-08T12:30:17.274Z,12.40
2023-04-08T12:32:46.068Z,12.60
2023-04-08T12:35:13.371Z,12.70
2023-04-08T12:37:40.692Z,12.50
2023-04-08T12:40:08.290Z,12.40
2023-04-08T12:42:35.780Z,12.50
2023-04-08T12:45:02.664Z,12.60
2023-04-08T12:47:30.318Z,12.60
2023-04-08T12:49:57.715Z,12.70
2023-04-08T12:52:24.829Z,12.80
2023-04-08T12:54:51.890Z,13.00
2023-04-08T12:57:18.812Z,13.20
2023-04-08T12:59:45.675Z,13.30
2023-04-08T13:02:12.765Z,13.20
2023-04-08T13:04:39.821Z,13.10
2023-04-08T13:07:07.672Z,13.00
2023-04-08T13:09:35.073Z,12.90
2023-04-08T13:12:02.128Z,13.00
2023-04-08T13:14:29.073Z,13.10
2023-04-08T13:16:57.074Z,13.00
2023-04-08T13:19:23.861Z,13.00
2023-04-08T13:21:50.816Z,13.00
2023-04-08T13:24:18.761Z,13.10
2023-04-08T13:26:45.951Z,13.00
2023-04-08T13:29:14.447Z,13.10
2023-04-08T13:31:41.485Z,13.30
2023-04-08T13:34:08.412Z,13.50
2023-04-08T13:36:35.445Z,13.50
2023-04-08T13:39:02.355Z,13.30
2023-04-08T13:41:30.094Z,13.10
2023-04-08T13:43:57.022Z,12.90
2023-04-08T13:46:24.192Z,12.60
2023-04-08T13:48:54.018Z,12.40
2023-04-08T13:51:21.129Z,12.50
2023-04-08T13:53:48.164Z,12.40
2023-04-08T13:56:15.357Z,12.20
2023-04-08T13:58:42.911Z,12.30
2023-04-08T14:01:10.662Z,12.50
2023-04-08T14:03:37.756Z,12.60
2023-04-08T14:06:04.691Z,12.60
2023-04-08T14:08:31.642Z,12.70
2023-04-08T14:10:59.190Z,12.60
2023-04-08T14:13:26.007Z,12.70
2023-04-08T14:15:54.996Z,12.70
2023-04-08T14:18:22.346Z,12.90
2023-04-08T14:20:49.298Z,13.10
2023-04-08T14:23:17.164Z,13.10
2023-04-08T14:25:44.066Z,13.10
2023-04-08T14:28:11.529Z,13.00
2023-04-08T14:30:38.862Z,13.00
2023-04-08T14:33:06.175Z,12.90
2023-04-08T14:35:33.171Z,12.90
2023-04-08T14:38:00.717Z,13.00
2023-04-08T14:40:27.639Z,13.00
2023-04-08T14:42:54.592Z,13.10
2023-04-08T14:45:21.998Z,13.00
2023-04-08T14:47:48.957Z,12.80
2023-04-08T14:50:16.823Z,12.80
2023-04-08T14:52:45.324Z,12.80
2023-04-08T14:55:12.647Z,12.90
2023-04-08T14:57:39.587Z,12.80
2023-04-08T15:00:07.713Z,12.90
2023-04-08T15:02:34.718Z,13.00
2023-04-08T15:05:01.950Z,13.00
2023-04-08T15:07:28.941Z,13.10
2023-04-08T15:09:57.088Z,13.10
2023-04-08T15:12:24.706Z,13.30
2023-04-08T15:14:51.717Z,13.40
2023-04-08T15:17:18.823Z,13.60
2023-04-08T15:19:46.426Z,13.70
2023-04-08T15:22:13.478Z,13.70
2023-04-08T15:24:40.486Z,13.70
2023-04-08T15:27:07.542Z,13.70
2023-04-08T15:29:34.658Z,13.70
2023-04-08T15:32:01.632Z,13.70
2023-04-08T15:34:28.588Z,13.80
2023-04-08T15:36:58.588Z,13.70
2023-04-08T15:39:25.959Z,13.40
2023-04-08T15:41:53.241Z,13.20
2023-04-08T15:44:20.083Z,13.20
2023-04-08T15:46:47.023Z,13.10
2023-04-08T15:49:14.606Z,13.00
2023-04-08T15:51:44.534Z,12.70
2023-04-08T15:54:11.973Z,12.60
2023-04-08T15:56:38.948Z,12.40
2023-04-08T15:59:05.846Z,12.40
2023-04-08T16:01:33.428Z,12.40
2023-04-08T16:04:01.053Z,12.40
2023-04-08T16:06:28.261Z,12.20
2023-04-08T16:08:56.721Z,12.10
2023-04-08T16:11:25.284Z,12.00
2023-04-08T16:13:52.437Z,12.00
2023-04-08T16:16:19.892Z,11.90
2023-04-08T16:18:47.689Z,11.90
2023-04-08T16:21:14.781Z,11.90
2023-04-08T16:23:41.685Z,11.90
2023-04-08T16:26:08.709Z,11.90
2023-04-08T16:28:36.991Z,11.90
2023-04-08T16:31:03.964Z,11.90
2023-04-08T16:33:32.070Z,11.90
2023-04-08T16:36:00.248Z,11.80
2023-04-08T16:38:27.369Z,11.80
2023-04-08T16:40:58.517Z,11.80
2023-04-08T16:43:25.934Z,11.80
2023-04-08T16:45:53.359Z,11.80
2023-04-08T16:48:21.067Z,11.70
2023-04-08T16:50:47.936Z,11.70
2023-04-08T16:53:14.802Z,11.70
2023-04-08T16:55:41.820Z,11.60
2023-04-08T16:58:08.625Z,11.50
2023-04-08T17:00:36.369Z,11.40
2023-04-08T17:03:03.513Z,11.30
2023-04-08T17:05:31.010Z,11.20
2023-04-08T17:07:58.258Z,11.10
2023-04-08T17:10:25.394Z,11.10
2023-04-08T17:12:52.776Z,11.10
2023-04-08T17:15:19.826Z,11.10
2023-04-08T17:17:47.913Z,11.00
2023-04-08T17:20:14.825Z,11.00
2023-04-08T17:22:42.301Z,10.90
2023-04-08T17:25:09.647Z,10.90
2023-04-08T17:27:36.625Z,10.90
2023-04-08T17:30:04.105Z,10.90
2023-04-08T17:32:30.963Z,10.80
2023-04-08T17:34:57.982Z,10.80
2023-04-08T17:37:25.027Z,10.80
2023-04-08T17:39:52.082Z,10.70
2023-04-08T17:42:22.456Z,10.60
2023-04-08T17:44:49.517Z,10.50
2023-04-08T17:47:16.466Z,10.40
2023-04-08T17:49:43.458Z,10.30
2023-04-08T17:52:10.338Z,10.20
2023-04-08T17:54:37.359Z,10.10
2023-04-08T17:57:04.561Z,10.00
2023-04-08T17:59:31.505Z,9.90
2023-04-08T18:01:58.403Z,9.80
2023-04-08T18:04:25.572Z,9.70
2023-04-08T18:06:52.548Z,9.60
2023-04-08T18:09:19.510Z,9.60
2023-04-08T18:11:46.527Z,9.50
2023-04-08T18:14:13.490Z,9.40
2023-04-08T18:16:40.710Z,9.30
2023-04-08T18:19:07.827Z,9.20
2023-04-08T18:21:34.671Z,9.10
2023-04-08T18:24:02.199Z,8.90
2023-04-08T18:26:29.211Z,8.90
2023-04-08T18:28:56.151Z,8.80
2023-04-08T18:31:24.480Z,8.70
2023-04-08T18:33:52.025Z,8.60
2023-04-08T18:36:19.283Z,8.40
2023-04-08T18:38:46.227Z,8.20
2023-04-08T18:41:13.435Z,8.10
2023-04-08T18:43:40.707Z,7.90
2023-04-08T18:46:07.757Z,7.70
2023-04-08T18:48:34.642Z,7.60
2023-04-08T18:51:02.066Z,7.60
2023-04-08T18:53:29.185Z,7.60
2023-04-08T18:55:56.323Z,7.50
2023-04-08T18:58:23.249Z,7.30
2023-04-08T19:00:50.101Z,7.10
2023-04-08T19:03:17.129Z,7.00
2023-04-08T19:05:44.250Z,6.90
2023-04-08T19:08:11.257Z,6.70
2023-04-08T19:10:38.120Z,6.60
2023-04-08T19:13:05.322Z,6.50
2023-04-08T19:15:32.174Z,6.50
2023-04-08T19:17:59.403Z,6.40
2023-04-08T19:20:27.395Z,6.40
2023-04-08T19:22:55.704Z,6.40
2023-04-08T19:25:22.859Z,6.40
2023-04-08T19:27:49.869Z,6.30
2023-04-08T19:30:17.031Z,6.20
2023-04-08T19:32:44.094Z,6.10
2023-04-08T19:35:14.299Z,6.00
2023-04-08T19:37:41.593Z,6.00
2023-04-08T19:40:09.162Z,5.90
2023-04-08T19:42:36.544Z,5.90
2023-04-08T19:45:03.928Z,5.80
2023-04-08T19:47:30.875Z,5.70
2023-04-08T19:49:58.462Z,5.60
2023-04-08T19:52:25.905Z,5.60
2023-04-08T19:54:53.212Z,5.50
2023-04-08T19:57:20.681Z,5.40
2023-04-08T19:59:50.505Z,5.30
2023-04-08T20:02:17.631Z,5.10
2023-04-08T20:04:45.716Z,5.00
2023-04-08T20:07:12.934Z,5.00
2023-04-08T20:09:39.979Z,4.90
2023-04-08T20:12:07.628Z,4.80
2023-04-08T20:14:37.970Z,4.70
2023-04-08T20:17:05.029Z,4.60
2023-04-08T20:19:31.876Z,4.70
2023-04-08T20:21:58.856Z,4.60
2023-04-08T20:24:26.326Z,4.60
2023-04-08T20:26:53.549Z,4.60
2023-04-08T20:29:20.748Z,4.60
2023-04-08T20:31:47.850Z,4.60
2023-04-08T20:34:14.782Z,4.50
2023-04-08T20:36:42.377Z,4.50
2023-04-08T20:39:12.657Z,4.40
2023-04-08T20:41:39.513Z,4.30
2023-04-08T20:44:08.656Z,4.20
2023-04-08T20:46:35.926Z,4.10
2023-04-08T20:49:04.396Z,4.00
2023-04-08T20:51:33.759Z,4.00
2023-04-08T20:54:00.864Z,3.90
2023-04-08T20:56:28.163Z,3.90
2023-04-08T20:58:56.371Z,3.80
2023-04-08T21:01:24.545Z,3.80
2023-04-08T21:03:51.789Z,3.80
2023-04-08T21:06:19.716Z,3.80
2023-04-08T21:08:47.244Z,3.80
2023-04-08T21:11:14.750Z,3.80
2023-04-08T21:13:41.676Z,3.80
2023-04-08T21:16:08.874Z,3.70
2023-04-08T21:18:38.998Z,3.70
2023-04-08T21:21:06.230Z,3.60
2023-04-08T21:23:33.341Z,3.50
2023-04-08T21:26:03.197Z,3.40
2023-04-08T21:28:30.675Z,3.40
2023-04-08T21:31:07.987Z,3.40
2023-04-08T21:33:34.963Z,3.40
2023-04-08T21:36:01.885Z,3.40
2023-04-08T21:38:28.692Z,3.50
2023-04-08T21:40:55.765Z,3.60
2023-04-08T21:43:22.712Z,3.50
2023-04-08T21:45:49.807Z,3.50
2023-04-08T21:48:16.733Z,3.50
2023-04-08T21:50:45.714Z,3.50
2023-04-08T21:53:12.957Z,3.40
2023-04-08T21:55:39.743Z,3.40
2023-04-08T21:58:07.015Z,3.40
2023-04-08T22:00:34.055Z,3.30
2023-04-08T22:03:01.089Z,3.30
2023-04-08T22:05:28.205Z,3.30
2023-04-08T22:07:55.033Z,3.20
2023-04-08T22:10:22.036Z,3.20
2023-04-08T22:12:49.160Z,3.30
2023-04-08T22:15:16.173Z,3.30
2023-04-08T22:17:43.223Z,3.30
2023-04-08T22:20:10.997Z,3.30
2023-04-08T22:22:37.857Z,3.20
2023-04-08T22:25:05.441Z,3.10
2023-04-08T22:27:32.480Z,3.00
2023-04-08T22:29:59.293Z,2.90
2023-04-08T22:32:26.610Z,2.80
2023-04-08T22:34:53.492Z,2.70
2023-04-08T22:37:20.310Z,2.70
2023-04-08T22:39:47.200Z,2.60
2023-04-08T22:42:14.166Z,2.60
2023-04-08T22:44:41.040Z,2.60
2023-04-08T22:47:07.971Z,2.50
2023-04-08T22:49:34.960Z,2.50
2023-04-08T22:52:01.992Z,2.40
2023-04-08T22:54:28.816Z,2.40
2023-04-08T22:56:56.019Z,2.40
2023-04-08T22:59:22.888Z,2.40
2023-04-08T23:01:49.909Z,2.30
2023-04-08T23:04:16.908Z,2.30
2023-04-08T23:06:43.977Z,2.40
2023-04-08T23:09:10.994Z,2.40
2023-04-08T23:11:37.921Z,2.40
2023-04-08T23:14:04.810Z,2.40
2023-04-08T23:16:31.722Z,2.30
2023-04-08T23:18:58.542Z,2.20
2023-04-08T23:21:26.105Z,2.10
2023-04-08T23:23:53.022Z,2.10
2023-04-08T23:26:21.281Z,2.00
2023-04-08T23:28:48.208Z,1.90
2023-04-08T23:31:15.423Z,1.90
2023-04-08T23:33:42.340Z,1.80
2023-04-08T23:36:11.257Z,1.80
2023-04-08T23:38:38.588Z,1.80
2023-04-08T23:41:06.320Z,1.70
2023-04-08T23:43:34.254Z,1.70
2023-04-08T23:46:01.166Z,1.70
2023-04-08T23:48:28.114Z,1.80
2023-04-08T23:50:55.915Z,1.80
2023-04-08T23:53:23.252Z,1.80
2023-04-08T23:55:50.329Z,1.80
2023-04-08T23:58:17.232Z,1.80
